Overview Statistics Trail Chart Weather Telemetry Raw packets
 

This is the latest recevied weather packets stored in our database for station/object DN9CHO-13. If no packets are shown the sender has not sent any weather packets the latest 10 day(s).

<< 34 35 36 37 38 39 40 >>
Time Temp. Humidity Pressure Rain* Wind** Luminosity Snow
1788060332 17.78° C 88% 1012.6 hPa 0 mm - 0 W/m² -
1788059729 17.78° C 86% 1012.7 hPa 0 mm - 0 W/m² -
1788059125 17.78° C 87% 1012.6 hPa 0 mm - 0 W/m² -
1788058521 17.78° C 94% 1012.6 hPa 0 mm - 0 W/m² -
1788057918 17.78° C 94% 1012.6 hPa 0 mm - 0 W/m² -
1788057334 17.78° C 93% 1012.3 hPa 0 mm - 0 W/m² -
1788056730 17.78° C 93% 1012.3 hPa 0 mm - 0 W/m² -
1788056127 18.33° C 93% 1012.4 hPa 0 mm - 0 W/m² -
1788055523 17.78° C 94% 1012.5 hPa 0.51 mm - 0 W/m² -
1788054919 17.78° C 96% 1012.2 hPa 0.51 mm - 0 W/m² -
1788054316 17.78° C 95% 1012.4 hPa 0.51 mm - 0 W/m² -
1788053732 17.78° C 95% 1012.2 hPa 0.51 mm - 0 W/m² -
1788053129 18.33° C 94% 1012.1 hPa 0.51 mm - 0 W/m² -
1788052525 18.33° C 94% 1012.1 hPa 0.76 mm - 0 W/m² -
1788051921 18.89° C 90% 1012 hPa 0.51 mm - 0 W/m² -
1788051318 18.33° C 93% 1011.8 hPa 0.51 mm - 0 W/m² -
1788050734 18.33° C 93% 1011.8 hPa 0.51 mm - 0 W/m² -
1788050130 18.89° C 91% 1011.9 hPa 0.51 mm - 0 W/m² -
1788049527 18.89° C 88% 1011.8 hPa 0.51 mm - 0 W/m² -
1788048923 19.44° C 86% 1011.8 hPa 0.25 mm - 0 W/m² -
1788048319 20° C 82% 1011.7 hPa 0 mm - 0 W/m² -
1788047716 19.44° C 83% 1011.6 hPa 0 mm - 0 W/m² -
1788047132 18.89° C 85% 1011.5 hPa 0 mm - 0 W/m² -
1788046529 18.33° C 87% 1011.6 hPa 0 mm - 0 W/m² -
1788045925 18.33° C 90% 1011.7 hPa 0 mm - 0 W/m² -

* Rain latest hour (hover to see other rain measurements)
** Current wind speed in m/s (hover to see current wind gust speed)